sensor_id;sensor_type;location;lat;lon;timestamp;P1;durP1;ratioP1;P2;durP2;ratioP2
57635;SDS011;43465;50.728;4.160;2023-06-19T00:00:44;7.63;;;5.00;;
57635;SDS011;43465;50.728;4.160;2023-06-19T00:03:10;5.15;;;4.65;;
57635;SDS011;43465;50.728;4.160;2023-06-19T00:05:35;6.82;;;4.50;;
57635;SDS011;43465;50.728;4.160;2023-06-19T00:08:01;5.07;;;4.35;;
57635;SDS011;43465;50.728;4.160;2023-06-19T00:10:28;5.30;;;4.80;;
57635;SDS011;43465;50.728;4.160;2023-06-19T00:12:54;7.05;;;4.78;;
57635;SDS011;43465;50.728;4.160;2023-06-19T00:15:19;8.07;;;4.88;;
57635;SDS011;43465;50.728;4.160;2023-06-19T00:17:45;7.30;;;5.07;;
57635;SDS011;43465;50.728;4.160;2023-06-19T00:20:10;6.47;;;5.03;;
57635;SDS011;43465;50.728;4.160;2023-06-19T00:22:38;8.70;;;5.60;;
57635;SDS011;43465;50.728;4.160;2023-06-19T00:25:04;8.68;;;5.00;;
57635;SDS011;43465;50.728;4.160;2023-06-19T00:27:31;6.55;;;5.05;;
57635;SDS011;43465;50.728;4.160;2023-06-19T00:29:57;8.73;;;5.25;;
57635;SDS011;43465;50.728;4.160;2023-06-19T00:32:27;7.40;;;5.95;;
57635;SDS011;43465;50.728;4.160;2023-06-19T00:34:53;9.10;;;5.05;;
57635;SDS011;43465;50.728;4.160;2023-06-19T00:37:19;9.35;;;5.55;;
57635;SDS011;43465;50.728;4.160;2023-06-19T00:39:45;5.63;;;5.05;;
57635;SDS011;43465;50.728;4.160;2023-06-19T00:42:10;5.78;;;4.97;;
57635;SDS011;43465;50.728;4.160;2023-06-19T00:44:36;7.57;;;5.55;;
57635;SDS011;43465;50.728;4.160;2023-06-19T00:47:02;10.20;;;6.05;;
57635;SDS011;43465;50.728;4.160;2023-06-19T00:49:29;9.93;;;6.40;;
57635;SDS011;43465;50.728;4.160;2023-06-19T00:51:56;8.07;;;5.63;;
57635;SDS011;43465;50.728;4.160;2023-06-19T00:54:22;8.57;;;5.35;;
57635;SDS011;43465;50.728;4.160;2023-06-19T00:56:48;10.93;;;5.78;;
57635;SDS011;43465;50.728;4.160;2023-06-19T00:59:15;8.60;;;5.72;;
57635;SDS011;43465;50.728;4.160;2023-06-19T01:01:42;8.45;;;5.90;;
57635;SDS011;43465;50.728;4.160;2023-06-19T01:04:08;10.98;;;6.55;;
57635;SDS011;43465;50.728;4.160;2023-06-19T01:06:38;8.85;;;5.95;;
57635;SDS011;43465;50.728;4.160;2023-06-19T01:09:13;8.13;;;5.93;;
57635;SDS011;43465;50.728;4.160;2023-06-19T01:11:50;8.55;;;6.15;;
57635;SDS011;43465;50.728;4.160;2023-06-19T01:14:26;9.35;;;5.70;;
57635;SDS011;43465;50.728;4.160;2023-06-19T01:17:00;10.57;;;5.80;;
57635;SDS011;43465;50.728;4.160;2023-06-19T01:19:25;9.63;;;5.47;;
57635;SDS011;43465;50.728;4.160;2023-06-19T01:21:51;7.05;;;6.35;;
57635;SDS011;43465;50.728;4.160;2023-06-19T01:24:17;12.52;;;5.93;;
57635;SDS011;43465;50.728;4.160;2023-06-19T01:26:42;11.38;;;6.57;;
57635;SDS011;43465;50.728;4.160;2023-06-19T01:29:11;13.38;;;6.22;;
57635;SDS011;43465;50.728;4.160;2023-06-19T01:31:42;7.72;;;5.95;;
57635;SDS011;43465;50.728;4.160;2023-06-19T01:34:15;11.88;;;6.53;;
57635;SDS011;43465;50.728;4.160;2023-06-19T01:36:45;14.75;;;7.32;;
57635;SDS011;43465;50.728;4.160;2023-06-19T01:39:13;10.25;;;7.03;;
57635;SDS011;43465;50.728;4.160;2023-06-19T01:41:40;11.65;;;6.88;;
57635;SDS011;43465;50.728;4.160;2023-06-19T01:44:06;12.88;;;7.57;;
57635;SDS011;43465;50.728;4.160;2023-06-19T01:46:33;10.73;;;7.43;;
57635;SDS011;43465;50.728;4.160;2023-06-19T01:48:59;9.30;;;7.07;;
57635;SDS011;43465;50.728;4.160;2023-06-19T01:51:24;14.70;;;7.38;;
57635;SDS011;43465;50.728;4.160;2023-06-19T01:53:50;9.48;;;7.38;;
57635;SDS011;43465;50.728;4.160;2023-06-19T01:56:15;11.20;;;7.22;;
57635;SDS011;43465;50.728;4.160;2023-06-19T01:58:41;12.32;;;7.72;;
57635;SDS011;43465;50.728;4.160;2023-06-19T02:01:07;13.05;;;7.57;;
57635;SDS011;43465;50.728;4.160;2023-06-19T02:03:32;9.40;;;7.20;;
57635;SDS011;43465;50.728;4.160;2023-06-19T02:05:58;13.15;;;8.02;;
57635;SDS011;43465;50.728;4.160;2023-06-19T02:08:23;10.40;;;7.93;;
57635;SDS011;43465;50.728;4.160;2023-06-19T02:10:49;13.57;;;8.40;;
57635;SDS011;43465;50.728;4.160;2023-06-19T02:13:15;10.82;;;8.07;;
57635;SDS011;43465;50.728;4.160;2023-06-19T02:15:40;12.48;;;8.73;;
57635;SDS011;43465;50.728;4.160;2023-06-19T02:18:06;10.52;;;8.50;;
57635;SDS011;43465;50.728;4.160;2023-06-19T02:20:33;11.23;;;9.35;;
57635;SDS011;43465;50.728;4.160;2023-06-19T02:22:59;15.55;;;10.27;;
57635;SDS011;43465;50.728;4.160;2023-06-19T02:25:25;13.90;;;9.75;;
57635;SDS011;43465;50.728;4.160;2023-06-19T02:27:50;14.77;;;10.40;;
57635;SDS011;43465;50.728;4.160;2023-06-19T02:30:16;13.55;;;10.70;;
57635;SDS011;43465;50.728;4.160;2023-06-19T02:32:42;19.10;;;10.75;;
57635;SDS011;43465;50.728;4.160;2023-06-19T02:35:09;15.05;;;11.40;;
57635;SDS011;43465;50.728;4.160;2023-06-19T02:37:35;21.20;;;11.50;;
57635;SDS011;43465;50.728;4.160;2023-06-19T02:40:02;17.25;;;11.85;;
57635;SDS011;43465;50.728;4.160;2023-06-19T02:42:31;15.32;;;11.57;;
57635;SDS011;43465;50.728;4.160;2023-06-19T02:44:57;17.95;;;12.20;;
57635;SDS011;43465;50.728;4.160;2023-06-19T02:47:28;20.65;;;13.60;;
57635;SDS011;43465;50.728;4.160;2023-06-19T02:49:57;17.48;;;13.15;;
57635;SDS011;43465;50.728;4.160;2023-06-19T02:52:24;15.10;;;13.50;;
57635;SDS011;43465;50.728;4.160;2023-06-19T02:54:50;15.38;;;12.10;;
57635;SDS011;43465;50.728;4.160;2023-06-19T02:57:15;13.20;;;11.90;;
57635;SDS011;43465;50.728;4.160;2023-06-19T02:59:41;13.55;;;10.93;;
57635;SDS011;43465;50.728;4.160;2023-06-19T03:02:06;12.27;;;10.13;;
57635;SDS011;43465;50.728;4.160;2023-06-19T03:04:32;11.57;;;8.60;;
57635;SDS011;43465;50.728;4.160;2023-06-19T03:06:58;9.40;;;8.50;;
57635;SDS011;43465;50.728;4.160;2023-06-19T03:09:23;10.50;;;9.35;;
57635;SDS011;43465;50.728;4.160;2023-06-19T03:11:49;10.05;;;8.95;;
57635;SDS011;43465;50.728;4.160;2023-06-19T03:14:15;13.70;;;9.48;;
57635;SDS011;43465;50.728;4.160;2023-06-19T03:16:40;12.80;;;9.35;;
57635;SDS011;43465;50.728;4.160;2023-06-19T03:19:06;10.63;;;9.48;;
57635;SDS011;43465;50.728;4.160;2023-06-19T03:21:31;10.98;;;9.77;;
57635;SDS011;43465;50.728;4.160;2023-06-19T03:23:57;13.95;;;10.23;;
57635;SDS011;43465;50.728;4.160;2023-06-19T03:26:23;12.80;;;10.05;;
57635;SDS011;43465;50.728;4.160;2023-06-19T03:28:49;13.05;;;11.05;;
57635;SDS011;43465;50.728;4.160;2023-06-19T03:31:15;13.82;;;11.45;;
57635;SDS011;43465;50.728;4.160;2023-06-19T03:33:41;13.40;;;11.30;;
57635;SDS011;43465;50.728;4.160;2023-06-19T03:36:06;12.25;;;11.05;;
57635;SDS011;43465;50.728;4.160;2023-06-19T03:38:35;16.35;;;13.30;;
57635;SDS011;43465;50.728;4.160;2023-06-19T03:41:01;14.77;;;13.20;;
57635;SDS011;43465;50.728;4.160;2023-06-19T03:43:27;18.38;;;13.30;;
57635;SDS011;43465;50.728;4.160;2023-06-19T03:45:52;17.75;;;14.15;;
57635;SDS011;43465;50.728;4.160;2023-06-19T03:48:18;14.45;;;12.90;;
57635;SDS011;43465;50.728;4.160;2023-06-19T03:50:44;16.58;;;14.25;;
57635;SDS011;43465;50.728;4.160;2023-06-19T03:53:09;17.25;;;13.63;;
57635;SDS011;43465;50.728;4.160;2023-06-19T03:55:35;15.40;;;13.70;;
57635;SDS011;43465;50.728;4.160;2023-06-19T03:58:01;16.25;;;13.60;;
57635;SDS011;43465;50.728;4.160;2023-06-19T04:00:26;15.57;;;13.07;;
57635;SDS011;43465;50.728;4.160;2023-06-19T04:02:52;16.90;;;13.30;;
57635;SDS011;43465;50.728;4.160;2023-06-19T04:05:18;15.38;;;13.77;;
57635;SDS011;43465;50.728;4.160;2023-06-19T04:07:44;15.25;;;13.65;;
57635;SDS011;43465;50.728;4.160;2023-06-19T04:10:10;15.25;;;13.63;;
57635;SDS011;43465;50.728;4.160;2023-06-19T04:12:39;17.77;;;15.20;;
57635;SDS011;43465;50.728;4.160;2023-06-19T04:15:05;18.63;;;14.32;;
57635;SDS011;43465;50.728;4.160;2023-06-19T04:17:32;16.25;;;14.30;;
57635;SDS011;43465;50.728;4.160;2023-06-19T04:19:57;16.15;;;14.18;;
57635;SDS011;43465;50.728;4.160;2023-06-19T04:22:23;17.17;;;13.57;;
57635;SDS011;43465;50.728;4.160;2023-06-19T04:24:48;17.98;;;13.95;;
57635;SDS011;43465;50.728;4.160;2023-06-19T04:27:14;17.58;;;13.43;;
57635;SDS011;43465;50.728;4.160;2023-06-19T04:29:40;15.60;;;13.98;;
57635;SDS011;43465;50.728;4.160;2023-06-19T04:32:06;15.40;;;13.77;;
57635;SDS011;43465;50.728;4.160;2023-06-19T04:34:36;15.80;;;13.38;;
57635;SDS011;43465;50.728;4.160;2023-06-19T04:37:07;15.48;;;13.65;;
57635;SDS011;43465;50.728;4.160;2023-06-19T04:39:33;17.40;;;14.20;;
57635;SDS011;43465;50.728;4.160;2023-06-19T04:41:59;14.90;;;13.25;;
57635;SDS011;43465;50.728;4.160;2023-06-19T04:44:25;16.23;;;14.07;;
57635;SDS011;43465;50.728;4.160;2023-06-19T04:46:50;16.20;;;13.32;;
57635;SDS011;43465;50.728;4.160;2023-06-19T04:49:16;17.70;;;13.55;;
57635;SDS011;43465;50.728;4.160;2023-06-19T04:51:42;15.95;;;14.32;;
57635;SDS011;43465;50.728;4.160;2023-06-19T04:54:07;16.88;;;15.07;;
57635;SDS011;43465;50.728;4.160;2023-06-19T04:56:33;16.50;;;14.38;;
57635;SDS011;43465;50.728;4.160;2023-06-19T04:58:59;15.43;;;13.85;;
57635;SDS011;43465;50.728;4.160;2023-06-19T05:01:26;19.52;;;14.55;;
57635;SDS011;43465;50.728;4.160;2023-06-19T05:03:53;16.63;;;14.05;;
57635;SDS011;43465;50.728;4.160;2023-06-19T05:06:22;17.90;;;14.70;;
57635;SDS011;43465;50.728;4.160;2023-06-19T05:08:48;16.92;;;14.73;;
57635;SDS011;43465;50.728;4.160;2023-06-19T05:11:13;18.65;;;15.52;;
57635;SDS011;43465;50.728;4.160;2023-06-19T05:13:39;16.83;;;15.13;;
57635;SDS011;43465;50.728;4.160;2023-06-19T05:16:05;17.13;;;15.32;;
57635;SDS011;43465;50.728;4.160;2023-06-19T05:18:30;19.15;;;15.68;;
57635;SDS011;43465;50.728;4.160;2023-06-19T05:20:56;18.38;;;16.30;;
57635;SDS011;43465;50.728;4.160;2023-06-19T05:23:22;18.02;;;16.05;;
57635;SDS011;43465;50.728;4.160;2023-06-19T05:25:47;17.63;;;15.80;;
57635;SDS011;43465;50.728;4.160;2023-06-19T05:28:13;20.95;;;15.55;;
57635;SDS011;43465;50.728;4.160;2023-06-19T05:30:39;26.38;;;16.05;;
57635;SDS011;43465;50.728;4.160;2023-06-19T05:33:04;25.15;;;16.30;;
57635;SDS011;43465;50.728;4.160;2023-06-19T05:35:30;21.92;;;17.90;;
57635;SDS011;43465;50.728;4.160;2023-06-19T05:37:56;21.98;;;19.33;;
57635;SDS011;43465;50.728;4.160;2023-06-19T05:40:22;22.55;;;19.80;;
57635;SDS011;43465;50.728;4.160;2023-06-19T05:42:48;26.10;;;23.42;;
57635;SDS011;43465;50.728;4.160;2023-06-19T05:45:14;29.33;;;25.48;;
57635;SDS011;43465;50.728;4.160;2023-06-19T05:47:39;29.92;;;24.70;;
57635;SDS011;43465;50.728;4.160;2023-06-19T05:50:05;26.48;;;23.63;;
57635;SDS011;43465;50.728;4.160;2023-06-19T05:52:31;26.95;;;23.90;;
57635;SDS011;43465;50.728;4.160;2023-06-19T05:54:57;25.33;;;22.48;;
57635;SDS011;43465;50.728;4.160;2023-06-19T05:57:23;28.73;;;24.33;;
57635;SDS011;43465;50.728;4.160;2023-06-19T05:59:49;26.48;;;23.65;;
57635;SDS011;43465;50.728;4.160;2023-06-19T06:02:15;26.05;;;23.23;;
57635;SDS011;43465;50.728;4.160;2023-06-19T06:04:44;26.13;;;22.77;;
57635;SDS011;43465;50.728;4.160;2023-06-19T06:07:10;25.05;;;22.33;;
57635;SDS011;43465;50.728;4.160;2023-06-19T06:09:36;24.00;;;21.48;;
57635;SDS011;43465;50.728;4.160;2023-06-19T06:12:01;24.50;;;21.90;;
57635;SDS011;43465;50.728;4.160;2023-06-19T06:14:27;27.42;;;21.92;;
57635;SDS011;43465;50.728;4.160;2023-06-19T06:16:53;27.00;;;21.83;;
57635;SDS011;43465;50.728;4.160;2023-06-19T06:19:22;26.83;;;23.92;;
57635;SDS011;43465;50.728;4.160;2023-06-19T06:21:48;23.58;;;21.13;;
57635;SDS011;43465;50.728;4.160;2023-06-19T06:24:14;24.90;;;22.20;;
57635;SDS011;43465;50.728;4.160;2023-06-19T06:26:40;24.67;;;21.13;;
57635;SDS011;43465;50.728;4.160;2023-06-19T06:29:06;23.13;;;19.60;;
57635;SDS011;43465;50.728;4.160;2023-06-19T06:31:33;25.23;;;21.88;;
57635;SDS011;43465;50.728;4.160;2023-06-19T06:33:59;30.02;;;22.20;;
57635;SDS011;43465;50.728;4.160;2023-06-19T06:36:24;25.67;;;20.60;;
57635;SDS011;43465;50.728;4.160;2023-06-19T06:38:50;26.55;;;19.00;;
57635;SDS011;43465;50.728;4.160;2023-06-19T06:41:15;27.50;;;18.88;;
57635;SDS011;43465;50.728;4.160;2023-06-19T06:43:41;20.73;;;17.67;;
57635;SDS011;43465;50.728;4.160;2023-06-19T06:46:08;27.13;;;19.38;;
57635;SDS011;43465;50.728;4.160;2023-06-19T06:48:34;24.33;;;18.92;;
57635;SDS011;43465;50.728;4.160;2023-06-19T06:50:59;23.02;;;19.10;;
57635;SDS011;43465;50.728;4.160;2023-06-19T06:53:26;30.02;;;20.52;;
57635;SDS011;43465;50.728;4.160;2023-06-19T06:55:58;23.65;;;19.63;;
57635;SDS011;43465;50.728;4.160;2023-06-19T06:58:25;19.67;;;17.58;;
57635;SDS011;43465;50.728;4.160;2023-06-19T07:00:51;20.67;;;18.45;;
57635;SDS011;43465;50.728;4.160;2023-06-19T07:03:17;21.05;;;18.65;;
57635;SDS011;43465;50.728;4.160;2023-06-19T07:05:43;19.80;;;17.67;;
57635;SDS011;43465;50.728;4.160;2023-06-19T07:08:09;20.75;;;18.55;;
57635;SDS011;43465;50.728;4.160;2023-06-19T07:10:35;22.73;;;18.35;;
57635;SDS011;43465;50.728;4.160;2023-06-19T07:13:00;20.02;;;17.63;;
57635;SDS011;43465;50.728;4.160;2023-06-19T07:15:26;19.98;;;17.75;;
57635;SDS011;43465;50.728;4.160;2023-06-19T07:17:52;21.27;;;17.88;;
57635;SDS011;43465;50.728;4.160;2023-06-19T07:20:17;20.55;;;18.35;;
57635;SDS011;43465;50.728;4.160;2023-06-19T07:22:43;25.10;;;18.00;;
57635;SDS011;43465;50.728;4.160;2023-06-19T07:25:10;21.33;;;17.25;;
57635;SDS011;43465;50.728;4.160;2023-06-19T07:27:36;27.38;;;17.45;;
57635;SDS011;43465;50.728;4.160;2023-06-19T07:30:02;19.67;;;16.45;;
57635;SDS011;43465;50.728;4.160;2023-06-19T07:32:28;18.48;;;15.85;;
57635;SDS011;43465;50.728;4.160;2023-06-19T07:34:54;16.15;;;14.45;;
57635;SDS011;43465;50.728;4.160;2023-06-19T07:37:20;22.02;;;15.80;;
57635;SDS011;43465;50.728;4.160;2023-06-19T07:39:48;21.02;;;16.35;;
57635;SDS011;43465;50.728;4.160;2023-06-19T07:42:15;16.17;;;13.77;;
57635;SDS011;43465;50.728;4.160;2023-06-19T07:44:42;14.80;;;12.98;;
57635;SDS011;43465;50.728;4.160;2023-06-19T07:47:08;15.60;;;13.90;;
57635;SDS011;43465;50.728;4.160;2023-06-19T07:49:35;15.45;;;13.30;;
57635;SDS011;43465;50.728;4.160;2023-06-19T07:52:01;13.75;;;12.35;;
57635;SDS011;43465;50.728;4.160;2023-06-19T07:54:27;14.95;;;12.75;;
57635;SDS011;43465;50.728;4.160;2023-06-19T07:56:53;14.85;;;12.63;;
57635;SDS011;43465;50.728;4.160;2023-06-19T07:59:19;13.52;;;11.43;;
57635;SDS011;43465;50.728;4.160;2023-06-19T08:01:45;16.52;;;11.52;;
57635;SDS011;43465;50.728;4.160;2023-06-19T08:04:10;13.32;;;11.13;;
57635;SDS011;43465;50.728;4.160;2023-06-19T08:06:36;20.75;;;12.43;;
57635;SDS011;43465;50.728;4.160;2023-06-19T08:09:02;15.25;;;11.77;;
57635;SDS011;43465;50.728;4.160;2023-06-19T08:11:28;16.58;;;12.48;;
57635;SDS011;43465;50.728;4.160;2023-06-19T08:13:54;18.33;;;13.05;;
57635;SDS011;43465;50.728;4.160;2023-06-19T08:16:20;16.85;;;12.00;;
57635;SDS011;43465;50.728;4.160;2023-06-19T08:18:46;17.95;;;12.80;;
57635;SDS011;43465;50.728;4.160;2023-06-19T08:21:12;16.77;;;12.27;;
57635;SDS011;43465;50.728;4.160;2023-06-19T08:23:38;15.50;;;11.48;;
57635;SDS011;43465;50.728;4.160;2023-06-19T08:26:05;17.05;;;11.60;;
57635;SDS011;43465;50.728;4.160;2023-06-19T08:28:32;13.90;;;10.98;;
57635;SDS011;43465;50.728;4.160;2023-06-19T08:30:58;19.10;;;12.73;;
57635;SDS011;43465;50.728;4.160;2023-06-19T08:33:24;13.90;;;10.57;;
57635;SDS011;43465;50.728;4.160;2023-06-19T08:35:50;12.80;;;10.75;;
57635;SDS011;43465;50.728;4.160;2023-06-19T08:38:16;13.40;;;11.05;;
57635;SDS011;43465;50.728;4.160;2023-06-19T08:40:42;12.18;;;10.93;;
57635;SDS011;43465;50.728;4.160;2023-06-19T08:43:10;18.38;;;11.27;;
57635;SDS011;43465;50.728;4.160;2023-06-19T08:45:36;15.65;;;11.30;;
57635;SDS011;43465;50.728;4.160;2023-06-19T08:48:03;12.95;;;10.13;;
57635;SDS011;43465;50.728;4.160;2023-06-19T08:50:29;19.05;;;12.63;;
57635;SDS011;43465;50.728;4.160;2023-06-19T08:52:58;17.80;;;12.00;;
57635;SDS011;43465;50.728;4.160;2023-06-19T08:55:24;18.17;;;11.88;;
57635;SDS011;43465;50.728;4.160;2023-06-19T08:57:50;15.55;;;12.18;;
57635;SDS011;43465;50.728;4.160;2023-06-19T09:00:23;13.85;;;11.55;;
57635;SDS011;43465;50.728;4.160;2023-06-19T09:02:50;16.75;;;13.95;;
57635;SDS011;43465;50.728;4.160;2023-06-19T09:05:16;18.17;;;14.65;;
57635;SDS011;43465;50.728;4.160;2023-06-19T09:07:44;15.45;;;13.45;;
57635;SDS011;43465;50.728;4.160;2023-06-19T09:10:19;15.85;;;11.63;;
57635;SDS011;43465;50.728;4.160;2023-06-19T09:12:55;14.55;;;11.38;;
57635;SDS011;43465;50.728;4.160;2023-06-19T09:15:22;13.10;;;10.45;;
57635;SDS011;43465;50.728;4.160;2023-06-19T09:17:59;12.35;;;11.10;;
57635;SDS011;43465;50.728;4.160;2023-06-19T09:20:37;13.95;;;11.48;;
57635;SDS011;43465;50.728;4.160;2023-06-19T09:23:10;15.20;;;12.45;;
57635;SDS011;43465;50.728;4.160;2023-06-19T09:26:10;14.07;;;11.93;;
57635;SDS011;43465;50.728;4.160;2023-06-19T09:28:29;15.23;;;12.30;;
57635;SDS011;43465;50.728;4.160;2023-06-19T09:30:55;13.50;;;11.32;;
57635;SDS011;43465;50.728;4.160;2023-06-19T09:33:26;13.75;;;10.43;;
57635;SDS011;43465;50.728;4.160;2023-06-19T09:35:54;12.15;;;10.80;;
57635;SDS011;43465;50.728;4.160;2023-06-19T09:38:25;13.57;;;11.63;;
57635;SDS011;43465;50.728;4.160;2023-06-19T09:40:52;15.35;;;13.73;;
57635;SDS011;43465;50.728;4.160;2023-06-19T09:43:22;18.83;;;15.82;;
57635;SDS011;43465;50.728;4.160;2023-06-19T09:45:50;18.23;;;14.95;;
57635;SDS011;43465;50.728;4.160;2023-06-19T09:48:19;18.40;;;16.25;;
57635;SDS011;43465;50.728;4.160;2023-06-19T09:50:48;17.80;;;15.35;;
57635;SDS011;43465;50.728;4.160;2023-06-19T09:53:20;23.42;;;16.20;;
57635;SDS011;43465;50.728;4.160;2023-06-19T09:55:49;16.83;;;15.02;;
57635;SDS011;43465;50.728;4.160;2023-06-19T09:58:20;16.30;;;13.05;;
57635;SDS011;43465;50.728;4.160;2023-06-19T10:00:47;17.33;;;13.38;;
57635;SDS011;43465;50.728;4.160;2023-06-19T10:03:16;13.85;;;12.40;;
57635;SDS011;43465;50.728;4.160;2023-06-19T10:05:42;16.17;;;12.38;;
57635;SDS011;43465;50.728;4.160;2023-06-19T10:08:07;13.57;;;11.93;;
57635;SDS011;43465;50.728;4.160;2023-06-19T10:10:33;16.15;;;12.02;;
57635;SDS011;43465;50.728;4.160;2023-06-19T10:13:10;16.00;;;13.10;;
57635;SDS011;43465;50.728;4.160;2023-06-19T10:15:40;14.57;;;11.95;;
57635;SDS011;43465;50.728;4.160;2023-06-19T10:18:16;15.55;;;11.90;;
57635;SDS011;43465;50.728;4.160;2023-06-19T10:20:43;17.83;;;13.23;;
57635;SDS011;43465;50.728;4.160;2023-06-19T10:25:44;17.10;;;11.82;;
57635;SDS011;43465;50.728;4.160;2023-06-19T10:28:18;19.70;;;13.02;;
57635;SDS011;43465;50.728;4.160;2023-06-19T10:30:58;19.75;;;13.52;;
57635;SDS011;43465;50.728;4.160;2023-06-19T10:33:29;24.52;;;15.25;;
57635;SDS011;43465;50.728;4.160;2023-06-19T10:35:57;24.15;;;16.75;;
57635;SDS011;43465;50.728;4.160;2023-06-19T10:38:27;22.98;;;17.63;;
57635;SDS011;43465;50.728;4.160;2023-06-19T10:40:54;25.50;;;18.05;;
57635;SDS011;43465;50.728;4.160;2023-06-19T10:43:21;26.27;;;18.42;;
57635;SDS011;43465;50.728;4.160;2023-06-19T10:45:50;29.50;;;19.38;;
57635;SDS011;43465;50.728;4.160;2023-06-19T10:48:19;29.58;;;17.52;;
57635;SDS011;43465;50.728;4.160;2023-06-19T10:50:47;28.23;;;17.27;;
57635;SDS011;43465;50.728;4.160;2023-06-19T10:53:26;27.35;;;17.35;;
57635;SDS011;43465;50.728;4.160;2023-06-19T10:55:54;22.73;;;17.00;;
57635;SDS011;43465;50.728;4.160;2023-06-19T10:58:21;25.17;;;16.60;;
57635;SDS011;43465;50.728;4.160;2023-06-19T11:00:47;26.45;;;16.90;;
57635;SDS011;43465;50.728;4.160;2023-06-19T11:03:12;23.13;;;16.27;;
57635;SDS011;43465;50.728;4.160;2023-06-19T11:05:38;23.52;;;16.75;;
57635;SDS011;43465;50.728;4.160;2023-06-19T11:08:09;25.40;;;18.17;;
57635;SDS011;43465;50.728;4.160;2023-06-19T11:10:35;24.75;;;17.50;;
57635;SDS011;43465;50.728;4.160;2023-06-19T11:13:00;23.25;;;16.85;;
57635;SDS011;43465;50.728;4.160;2023-06-19T11:15:30;22.95;;;17.23;;
57635;SDS011;43465;50.728;4.160;2023-06-19T11:18:00;25.55;;;16.85;;
57635;SDS011;43465;50.728;4.160;2023-06-19T11:20:27;23.10;;;14.85;;
57635;SDS011;43465;50.728;4.160;2023-06-19T11:23:02;17.95;;;13.27;;
57635;SDS011;43465;50.728;4.160;2023-06-19T11:25:34;20.73;;;14.60;;
57635;SDS011;43465;50.728;4.160;2023-06-19T11:28:04;18.05;;;13.95;;
57635;SDS011;43465;50.728;4.160;2023-06-19T11:30:38;19.10;;;14.85;;
57635;SDS011;43465;50.728;4.160;2023-06-19T11:33:14;18.85;;;14.35;;
57635;SDS011;43465;50.728;4.160;2023-06-19T11:38:18;18.77;;;13.43;;
57635;SDS011;43465;50.728;4.160;2023-06-19T11:40:46;17.13;;;13.20;;
57635;SDS011;43465;50.728;4.160;2023-06-19T11:43:12;23.17;;;14.07;;
57635;SDS011;43465;50.728;4.160;2023-06-19T11:45:48;21.65;;;16.27;;
57635;SDS011;43465;50.728;4.160;2023-06-19T11:48:14;19.20;;;14.50;;
57635;SDS011;43465;50.728;4.160;2023-06-19T11:50:46;17.73;;;13.57;;
57635;SDS011;43465;50.728;4.160;2023-06-19T11:53:12;17.27;;;12.60;;
57635;SDS011;43465;50.728;4.160;2023-06-19T11:55:38;16.08;;;12.40;;
57635;SDS011;43465;50.728;4.160;2023-06-19T11:58:04;14.80;;;11.35;;
57635;SDS011;43465;50.728;4.160;2023-06-19T12:00:29;16.42;;;12.20;;
57635;SDS011;43465;50.728;4.160;2023-06-19T12:02:55;11.65;;;9.50;;
57635;SDS011;43465;50.728;4.160;2023-06-19T12:05:22;12.00;;;9.55;;
57635;SDS011;43465;50.728;4.160;2023-06-19T12:07:47;14.80;;;10.48;;
57635;SDS011;43465;50.728;4.160;2023-06-19T12:10:13;13.73;;;10.82;;
57635;SDS011;43465;50.728;4.160;2023-06-19T12:12:39;13.48;;;10.85;;
57635;SDS011;43465;50.728;4.160;2023-06-19T12:15:05;16.13;;;11.30;;
57635;SDS011;43465;50.728;4.160;2023-06-19T12:17:31;16.42;;;10.57;;
57635;SDS011;43465;50.728;4.160;2023-06-19T12:19:58;17.85;;;11.65;;
57635;SDS011;43465;50.728;4.160;2023-06-19T12:22:23;14.25;;;9.60;;
57635;SDS011;43465;50.728;4.160;2023-06-19T12:24:49;13.18;;;9.35;;
57635;SDS011;43465;50.728;4.160;2023-06-19T12:27:15;9.85;;;8.85;;
57635;SDS011;43465;50.728;4.160;2023-06-19T12:29:40;13.02;;;9.32;;
57635;SDS011;43465;50.728;4.160;2023-06-19T12:32:06;12.32;;;10.05;;
57635;SDS011;43465;50.728;4.160;2023-06-19T12:34:32;13.50;;;9.15;;
57635;SDS011;43465;50.728;4.160;2023-06-19T12:36:58;13.45;;;8.85;;
57635;SDS011;43465;50.728;4.160;2023-06-19T12:39:23;11.07;;;8.32;;
57635;SDS011;43465;50.728;4.160;2023-06-19T12:41:50;13.07;;;8.95;;
57635;SDS011;43465;50.728;4.160;2023-06-19T12:44:15;10.70;;;7.60;;
57635;SDS011;43465;50.728;4.160;2023-06-19T12:46:42;10.27;;;7.03;;
57635;SDS011;43465;50.728;4.160;2023-06-19T12:49:07;9.15;;;7.90;;
57635;SDS011;43465;50.728;4.160;2023-06-19T12:51:33;11.13;;;8.07;;
57635;SDS011;43465;50.728;4.160;2023-06-19T12:53:59;9.23;;;7.85;;
57635;SDS011;43465;50.728;4.160;2023-06-19T12:56:25;11.88;;;7.63;;
57635;SDS011;43465;50.728;4.160;2023-06-19T12:58:50;10.45;;;7.90;;
57635;SDS011;43465;50.728;4.160;2023-06-19T13:01:16;9.35;;;7.70;;
57635;SDS011;43465;50.728;4.160;2023-06-19T13:03:42;10.75;;;8.02;;
57635;SDS011;43465;50.728;4.160;2023-06-19T13:06:08;9.68;;;7.85;;
57635;SDS011;43465;50.728;4.160;2023-06-19T13:08:33;9.73;;;8.00;;
57635;SDS011;43465;50.728;4.160;2023-06-19T13:10:59;9.85;;;8.05;;
57635;SDS011;43465;50.728;4.160;2023-06-19T13:13:24;8.70;;;7.05;;
57635;SDS011;43465;50.728;4.160;2023-06-19T13:15:50;10.63;;;7.55;;
57635;SDS011;43465;50.728;4.160;2023-06-19T13:18:17;8.05;;;7.22;;
57635;SDS011;43465;50.728;4.160;2023-06-19T13:20:43;10.27;;;7.90;;
57635;SDS011;43465;50.728;4.160;2023-06-19T13:23:10;9.13;;;6.53;;
57635;SDS011;43465;50.728;4.160;2023-06-19T13:25:35;8.13;;;6.85;;
57635;SDS011;43465;50.728;4.160;2023-06-19T13:28:01;8.07;;;6.97;;
57635;SDS011;43465;50.728;4.160;2023-06-19T13:30:27;9.88;;;6.90;;
57635;SDS011;43465;50.728;4.160;2023-06-19T13:32:54;9.65;;;6.05;;
57635;SDS011;43465;50.728;4.160;2023-06-19T13:35:19;8.48;;;6.25;;
57635;SDS011;43465;50.728;4.160;2023-06-19T13:37:46;12.73;;;6.88;;
57635;SDS011;43465;50.728;4.160;2023-06-19T13:40:12;12.95;;;7.10;;
57635;SDS011;43465;50.728;4.160;2023-06-19T13:42:38;9.75;;;6.90;;
57635;SDS011;43465;50.728;4.160;2023-06-19T13:45:04;10.55;;;6.50;;
57635;SDS011;43465;50.728;4.160;2023-06-19T13:47:29;8.30;;;6.72;;
57635;SDS011;43465;50.728;4.160;2023-06-19T13:49:55;9.57;;;6.72;;
57635;SDS011;43465;50.728;4.160;2023-06-19T13:52:21;8.98;;;7.05;;
57635;SDS011;43465;50.728;4.160;2023-06-19T13:54:47;7.72;;;6.93;;
57635;SDS011;43465;50.728;4.160;2023-06-19T13:57:13;8.45;;;6.50;;
57635;SDS011;43465;50.728;4.160;2023-06-19T13:59:39;8.40;;;5.95;;
57635;SDS011;43465;50.728;4.160;2023-06-19T14:02:05;7.95;;;6.65;;
57635;SDS011;43465;50.728;4.160;2023-06-19T14:04:30;8.07;;;5.80;;
57635;SDS011;43465;50.728;4.160;2023-06-19T14:06:56;8.10;;;6.43;;
57635;SDS011;43465;50.728;4.160;2023-06-19T14:09:22;6.13;;;5.32;;
57635;SDS011;43465;50.728;4.160;2023-06-19T14:11:48;9.35;;;5.38;;
57635;SDS011;43465;50.728;4.160;2023-06-19T14:14:13;12.07;;;6.30;;
57635;SDS011;43465;50.728;4.160;2023-06-19T14:16:39;8.50;;;5.82;;
57635;SDS011;43465;50.728;4.160;2023-06-19T14:19:05;6.00;;;5.35;;
57635;SDS011;43465;50.728;4.160;2023-06-19T14:21:30;10.00;;;5.22;;
57635;SDS011;43465;50.728;4.160;2023-06-19T14:23:56;7.00;;;4.97;;
57635;SDS011;43465;50.728;4.160;2023-06-19T14:26:21;8.82;;;5.32;;
57635;SDS011;43465;50.728;4.160;2023-06-19T14:28:47;7.75;;;5.30;;
57635;SDS011;43465;50.728;4.160;2023-06-19T14:31:13;5.28;;;4.65;;